sensor_id;sensor_type;location;lat;lon;timestamp;P1;durP1;ratioP1;P2;durP2;ratioP2
33453;SDS011;39400;49.744;7.012;2022-08-19T00:02:12;14.57;;;11.95;;
33453;SDS011;39400;49.744;7.012;2022-08-19T00:04:40;16.70;;;13.15;;
33453;SDS011;39400;49.744;7.012;2022-08-19T00:07:07;14.82;;;12.90;;
33453;SDS011;39400;49.744;7.012;2022-08-19T00:09:34;13.02;;;11.68;;
33453;SDS011;39400;49.744;7.012;2022-08-19T00:12:01;16.75;;;12.35;;
33453;SDS011;39400;49.744;7.012;2022-08-19T00:14:29;12.27;;;11.00;;
33453;SDS011;39400;49.744;7.012;2022-08-19T00:17:00;12.43;;;11.10;;
33453;SDS011;39400;49.744;7.012;2022-08-19T00:19:27;15.30;;;11.40;;
33453;SDS011;39400;49.744;7.012;2022-08-19T00:21:54;16.55;;;12.07;;
33453;SDS011;39400;49.744;7.012;2022-08-19T00:24:23;12.85;;;11.35;;
33453;SDS011;39400;49.744;7.012;2022-08-19T00:26:50;14.68;;;13.00;;
33453;SDS011;39400;49.744;7.012;2022-08-19T00:29:19;15.07;;;11.30;;
33453;SDS011;39400;49.744;7.012;2022-08-19T00:31:47;14.75;;;12.70;;
33453;SDS011;39400;49.744;7.012;2022-08-19T00:34:16;13.98;;;11.88;;
33453;SDS011;39400;49.744;7.012;2022-08-19T00:36:44;16.92;;;11.93;;
33453;SDS011;39400;49.744;7.012;2022-08-19T00:39:12;14.80;;;12.50;;
33453;SDS011;39400;49.744;7.012;2022-08-19T00:41:40;13.43;;;12.02;;
33453;SDS011;39400;49.744;7.012;2022-08-19T00:44:09;12.00;;;10.13;;
33453;SDS011;39400;49.744;7.012;2022-08-19T00:46:40;12.05;;;10.45;;
33453;SDS011;39400;49.744;7.012;2022-08-19T00:51:42;12.98;;;10.48;;
33453;SDS011;39400;49.744;7.012;2022-08-19T00:54:13;13.20;;;10.32;;
33453;SDS011;39400;49.744;7.012;2022-08-19T00:56:41;10.55;;;9.43;;
33453;SDS011;39400;49.744;7.012;2022-08-19T00:59:09;15.75;;;10.23;;
33453;SDS011;39400;49.744;7.012;2022-08-19T01:01:41;12.57;;;11.23;;
33453;SDS011;39400;49.744;7.012;2022-08-19T01:04:09;12.38;;;10.65;;
33453;SDS011;39400;49.744;7.012;2022-08-19T01:06:37;16.05;;;11.65;;
33453;SDS011;39400;49.744;7.012;2022-08-19T01:09:06;16.88;;;12.57;;
33453;SDS011;39400;49.744;7.012;2022-08-19T01:11:35;13.00;;;10.95;;
33453;SDS011;39400;49.744;7.012;2022-08-19T01:14:07;12.60;;;11.07;;
33453;SDS011;39400;49.744;7.012;2022-08-19T01:16:36;15.52;;;11.52;;
33453;SDS011;39400;49.744;7.012;2022-08-19T01:19:40;12.52;;;11.07;;
33453;SDS011;39400;49.744;7.012;2022-08-19T01:24:48;15.88;;;11.65;;
33453;SDS011;39400;49.744;7.012;2022-08-19T01:27:17;13.68;;;12.23;;
33453;SDS011;39400;49.744;7.012;2022-08-19T01:29:46;13.93;;;10.50;;
33453;SDS011;39400;49.744;7.012;2022-08-19T01:32:14;12.65;;;10.38;;
33453;SDS011;39400;49.744;7.012;2022-08-19T01:35:00;14.25;;;10.32;;
33453;SDS011;39400;49.744;7.012;2022-08-19T01:37:29;15.27;;;11.10;;
33453;SDS011;39400;49.744;7.012;2022-08-19T01:40:08;12.67;;;10.97;;
33453;SDS011;39400;49.744;7.012;2022-08-19T01:42:36;13.02;;;10.85;;
33453;SDS011;39400;49.744;7.012;2022-08-19T01:45:04;14.73;;;11.32;;
33453;SDS011;39400;49.744;7.012;2022-08-19T01:47:34;14.15;;;10.85;;
33453;SDS011;39400;49.744;7.012;2022-08-19T01:50:04;15.77;;;11.18;;
33453;SDS011;39400;49.744;7.012;2022-08-19T01:52:34;16.70;;;13.82;;
33453;SDS011;39400;49.744;7.012;2022-08-19T01:55:04;13.93;;;11.63;;
33453;SDS011;39400;49.744;7.012;2022-08-19T01:57:33;14.15;;;12.05;;
33453;SDS011;39400;49.744;7.012;2022-08-19T02:00:00;10.90;;;9.73;;
33453;SDS011;39400;49.744;7.012;2022-08-19T02:02:37;14.40;;;12.07;;
33453;SDS011;39400;49.744;7.012;2022-08-19T02:05:04;13.00;;;10.32;;
33453;SDS011;39400;49.744;7.012;2022-08-19T02:07:37;12.05;;;10.65;;
33453;SDS011;39400;49.744;7.012;2022-08-19T02:10:08;14.68;;;12.25;;
33453;SDS011;39400;49.744;7.012;2022-08-19T02:12:44;12.18;;;10.85;;
33453;SDS011;39400;49.744;7.012;2022-08-19T02:15:13;13.50;;;11.47;;
33453;SDS011;39400;49.744;7.012;2022-08-19T02:17:40;12.45;;;10.80;;
33453;SDS011;39400;49.744;7.012;2022-08-19T02:20:09;14.77;;;9.98;;
33453;SDS011;39400;49.744;7.012;2022-08-19T02:22:38;10.57;;;9.13;;
33453;SDS011;39400;49.744;7.012;2022-08-19T02:25:08;11.80;;;10.18;;
33453;SDS011;39400;49.744;7.012;2022-08-19T02:30:05;12.02;;;9.10;;
33453;SDS011;39400;49.744;7.012;2022-08-19T02:32:40;10.43;;;9.30;;
33453;SDS011;39400;49.744;7.012;2022-08-19T02:35:11;12.07;;;8.88;;
33453;SDS011;39400;49.744;7.012;2022-08-19T02:37:40;11.35;;;8.57;;
33453;SDS011;39400;49.744;7.012;2022-08-19T02:40:27;10.02;;;9.00;;
33453;SDS011;39400;49.744;7.012;2022-08-19T02:42:55;12.73;;;8.68;;
33453;SDS011;39400;49.744;7.012;2022-08-19T02:45:22;11.25;;;9.60;;
33453;SDS011;39400;49.744;7.012;2022-08-19T02:47:49;13.18;;;8.73;;
33453;SDS011;39400;49.744;7.012;2022-08-19T02:50:17;13.10;;;11.40;;
33453;SDS011;39400;49.744;7.012;2022-08-19T02:52:45;11.70;;;10.18;;
33453;SDS011;39400;49.744;7.012;2022-08-19T02:55:12;11.43;;;8.27;;
33453;SDS011;39400;49.744;7.012;2022-08-19T02:57:39;18.40;;;8.05;;
33453;SDS011;39400;49.744;7.012;2022-08-19T03:00:08;10.95;;;8.68;;
33453;SDS011;39400;49.744;7.012;2022-08-19T03:02:39;9.48;;;8.50;;
33453;SDS011;39400;49.744;7.012;2022-08-19T03:05:07;11.35;;;9.68;;
33453;SDS011;39400;49.744;7.012;2022-08-19T03:07:36;13.02;;;10.70;;
33453;SDS011;39400;49.744;7.012;2022-08-19T03:10:04;11.90;;;9.15;;
33453;SDS011;39400;49.744;7.012;2022-08-19T03:12:34;11.35;;;10.15;;
33453;SDS011;39400;49.744;7.012;2022-08-19T03:15:02;11.20;;;9.15;;
33453;SDS011;39400;49.744;7.012;2022-08-19T03:17:32;11.55;;;9.35;;
33453;SDS011;39400;49.744;7.012;2022-08-19T03:20:00;12.02;;;9.50;;
33453;SDS011;39400;49.744;7.012;2022-08-19T03:22:27;16.23;;;13.18;;
33453;SDS011;39400;49.744;7.012;2022-08-19T03:24:56;17.02;;;14.02;;
33453;SDS011;39400;49.744;7.012;2022-08-19T03:27:23;16.23;;;14.02;;
33453;SDS011;39400;49.744;7.012;2022-08-19T03:29:55;16.77;;;13.25;;
33453;SDS011;39400;49.744;7.012;2022-08-19T03:32:23;16.13;;;13.63;;
33453;SDS011;39400;49.744;7.012;2022-08-19T03:34:59;13.30;;;11.38;;
33453;SDS011;39400;49.744;7.012;2022-08-19T03:37:26;14.77;;;12.23;;
33453;SDS011;39400;49.744;7.012;2022-08-19T03:39:53;17.83;;;14.65;;
33453;SDS011;39400;49.744;7.012;2022-08-19T03:42:20;18.60;;;15.73;;
33453;SDS011;39400;49.744;7.012;2022-08-19T03:45:04;15.90;;;12.27;;
33453;SDS011;39400;49.744;7.012;2022-08-19T03:47:33;14.50;;;12.95;;
33453;SDS011;39400;49.744;7.012;2022-08-19T03:50:01;15.30;;;13.07;;
33453;SDS011;39400;49.744;7.012;2022-08-19T03:52:29;14.30;;;11.57;;
33453;SDS011;39400;49.744;7.012;2022-08-19T03:54:56;16.15;;;13.50;;
33453;SDS011;39400;49.744;7.012;2022-08-19T03:57:23;16.73;;;12.00;;
33453;SDS011;39400;49.744;7.012;2022-08-19T03:59:58;14.00;;;12.10;;
33453;SDS011;39400;49.744;7.012;2022-08-19T04:02:39;14.68;;;10.68;;
33453;SDS011;39400;49.744;7.012;2022-08-19T04:05:08;15.32;;;11.35;;
33453;SDS011;39400;49.744;7.012;2022-08-19T04:07:35;15.32;;;11.90;;
33453;SDS011;39400;49.744;7.012;2022-08-19T04:10:02;16.60;;;12.40;;
33453;SDS011;39400;49.744;7.012;2022-08-19T04:12:30;16.02;;;12.73;;
33453;SDS011;39400;49.744;7.012;2022-08-19T04:14:57;14.18;;;12.32;;
33453;SDS011;39400;49.744;7.012;2022-08-19T04:17:25;13.73;;;12.15;;
33453;SDS011;39400;49.744;7.012;2022-08-19T04:19:52;11.98;;;10.15;;
33453;SDS011;39400;49.744;7.012;2022-08-19T04:22:19;10.63;;;8.60;;
33453;SDS011;39400;49.744;7.012;2022-08-19T04:24:46;11.23;;;8.68;;
33453;SDS011;39400;49.744;7.012;2022-08-19T04:27:13;14.13;;;9.05;;
33453;SDS011;39400;49.744;7.012;2022-08-19T04:29:42;13.73;;;9.40;;
33453;SDS011;39400;49.744;7.012;2022-08-19T04:32:10;13.18;;;9.48;;
33453;SDS011;39400;49.744;7.012;2022-08-19T04:34:37;11.05;;;7.40;;
33453;SDS011;39400;49.744;7.012;2022-08-19T04:37:25;12.77;;;8.50;;
33453;SDS011;39400;49.744;7.012;2022-08-19T04:40:02;11.27;;;7.70;;
33453;SDS011;39400;49.744;7.012;2022-08-19T04:42:49;11.98;;;8.70;;
33453;SDS011;39400;49.744;7.012;2022-08-19T04:45:16;13.77;;;10.40;;
33453;SDS011;39400;49.744;7.012;2022-08-19T04:47:43;14.43;;;10.05;;
33453;SDS011;39400;49.744;7.012;2022-08-19T04:50:26;10.93;;;8.88;;
33453;SDS011;39400;49.744;7.012;2022-08-19T04:52:53;9.27;;;8.32;;
33453;SDS011;39400;49.744;7.012;2022-08-19T04:55:22;10.93;;;8.90;;
33453;SDS011;39400;49.744;7.012;2022-08-19T04:57:52;11.43;;;8.73;;
33453;SDS011;39400;49.744;7.012;2022-08-19T05:00:20;15.68;;;10.02;;
33453;SDS011;39400;49.744;7.012;2022-08-19T05:02:48;11.43;;;10.20;;
33453;SDS011;39400;49.744;7.012;2022-08-19T05:05:16;15.20;;;11.40;;
33453;SDS011;39400;49.744;7.012;2022-08-19T05:07:43;14.98;;;10.85;;
33453;SDS011;39400;49.744;7.012;2022-08-19T05:10:11;13.45;;;10.43;;
33453;SDS011;39400;49.744;7.012;2022-08-19T05:12:39;11.65;;;10.45;;
33453;SDS011;39400;49.744;7.012;2022-08-19T05:15:06;12.88;;;9.50;;
33453;SDS011;39400;49.744;7.012;2022-08-19T05:17:35;16.25;;;9.57;;
33453;SDS011;39400;49.744;7.012;2022-08-19T05:20:05;10.02;;;8.82;;
33453;SDS011;39400;49.744;7.012;2022-08-19T05:22:52;21.05;;;9.02;;
33453;SDS011;39400;49.744;7.012;2022-08-19T05:25:20;11.65;;;8.70;;
33453;SDS011;39400;49.744;7.012;2022-08-19T05:27:48;15.40;;;13.13;;
33453;SDS011;39400;49.744;7.012;2022-08-19T05:30:16;14.80;;;11.80;;
33453;SDS011;39400;49.744;7.012;2022-08-19T05:32:44;9.20;;;8.23;;
33453;SDS011;39400;49.744;7.012;2022-08-19T05:35:11;12.32;;;8.48;;
33453;SDS011;39400;49.744;7.012;2022-08-19T05:37:39;12.38;;;8.75;;
33453;SDS011;39400;49.744;7.012;2022-08-19T05:40:09;10.57;;;9.02;;
33453;SDS011;39400;49.744;7.012;2022-08-19T05:42:37;10.00;;;8.75;;
33453;SDS011;39400;49.744;7.012;2022-08-19T05:45:05;12.55;;;8.55;;
33453;SDS011;39400;49.744;7.012;2022-08-19T05:47:33;11.23;;;8.95;;
33453;SDS011;39400;49.744;7.012;2022-08-19T05:50:00;11.93;;;8.18;;
33453;SDS011;39400;49.744;7.012;2022-08-19T05:52:31;9.98;;;8.15;;
33453;SDS011;39400;49.744;7.012;2022-08-19T05:54:59;13.18;;;9.57;;
33453;SDS011;39400;49.744;7.012;2022-08-19T05:57:26;10.50;;;8.98;;
33453;SDS011;39400;49.744;7.012;2022-08-19T05:59:55;10.90;;;9.27;;
33453;SDS011;39400;49.744;7.012;2022-08-19T06:04:57;11.77;;;10.20;;
33453;SDS011;39400;49.744;7.012;2022-08-19T06:07:24;14.15;;;11.90;;
33453;SDS011;39400;49.744;7.012;2022-08-19T06:09:52;12.05;;;10.25;;
33453;SDS011;39400;49.744;7.012;2022-08-19T06:12:27;11.38;;;9.70;;
33453;SDS011;39400;49.744;7.012;2022-08-19T06:15:00;11.95;;;10.70;;
33453;SDS011;39400;49.744;7.012;2022-08-19T06:17:29;12.60;;;10.85;;
33453;SDS011;39400;49.744;7.012;2022-08-19T06:19:57;11.70;;;10.40;;
33453;SDS011;39400;49.744;7.012;2022-08-19T06:22:26;16.73;;;12.32;;
33453;SDS011;39400;49.744;7.012;2022-08-19T06:24:54;16.27;;;12.60;;
33453;SDS011;39400;49.744;7.012;2022-08-19T06:27:22;15.27;;;10.77;;
33453;SDS011;39400;49.744;7.012;2022-08-19T06:29:49;15.25;;;10.18;;
33453;SDS011;39400;49.744;7.012;2022-08-19T06:32:17;14.05;;;11.65;;
33453;SDS011;39400;49.744;7.012;2022-08-19T06:34:46;12.25;;;10.45;;
33453;SDS011;39400;49.744;7.012;2022-08-19T06:37:13;12.77;;;10.80;;
33453;SDS011;39400;49.744;7.012;2022-08-19T06:39:41;14.50;;;12.27;;
33453;SDS011;39400;49.744;7.012;2022-08-19T06:44:40;12.20;;;9.40;;
33453;SDS011;39400;49.744;7.012;2022-08-19T06:47:16;12.25;;;10.27;;
33453;SDS011;39400;49.744;7.012;2022-08-19T06:49:58;11.90;;;10.70;;
33453;SDS011;39400;49.744;7.012;2022-08-19T06:52:34;12.35;;;10.90;;
33453;SDS011;39400;49.744;7.012;2022-08-19T06:55:04;13.48;;;11.90;;
33453;SDS011;39400;49.744;7.012;2022-08-19T06:57:32;20.23;;;12.97;;
33453;SDS011;39400;49.744;7.012;2022-08-19T07:00:00;14.02;;;10.98;;
33453;SDS011;39400;49.744;7.012;2022-08-19T07:02:28;14.20;;;11.65;;
33453;SDS011;39400;49.744;7.012;2022-08-19T07:04:55;13.57;;;10.18;;
33453;SDS011;39400;49.744;7.012;2022-08-19T07:07:24;11.93;;;10.63;;
33453;SDS011;39400;49.744;7.012;2022-08-19T07:09:52;13.60;;;11.30;;
33453;SDS011;39400;49.744;7.012;2022-08-19T07:12:28;14.82;;;13.20;;
33453;SDS011;39400;49.744;7.012;2022-08-19T07:14:58;12.10;;;10.82;;
33453;SDS011;39400;49.744;7.012;2022-08-19T07:17:25;13.25;;;11.77;;
33453;SDS011;39400;49.744;7.012;2022-08-19T07:19:53;15.50;;;12.40;;
33453;SDS011;39400;49.744;7.012;2022-08-19T07:22:22;13.35;;;11.95;;
33453;SDS011;39400;49.744;7.012;2022-08-19T07:24:50;21.02;;;15.23;;
33453;SDS011;39400;49.744;7.012;2022-08-19T07:27:18;13.95;;;11.82;;
33453;SDS011;39400;49.744;7.012;2022-08-19T07:29:52;15.35;;;13.77;;
33453;SDS011;39400;49.744;7.012;2022-08-19T07:32:23;12.70;;;11.25;;
33453;SDS011;39400;49.744;7.012;2022-08-19T07:34:54;13.60;;;12.13;;
33453;SDS011;39400;49.744;7.012;2022-08-19T07:37:23;15.85;;;13.32;;
33453;SDS011;39400;49.744;7.012;2022-08-19T07:39:59;13.65;;;12.23;;
33453;SDS011;39400;49.744;7.012;2022-08-19T07:42:28;17.58;;;15.13;;
33453;SDS011;39400;49.744;7.012;2022-08-19T07:44:57;16.58;;;13.63;;
33453;SDS011;39400;49.744;7.012;2022-08-19T07:47:25;13.07;;;11.77;;
33453;SDS011;39400;49.744;7.012;2022-08-19T07:50:14;13.73;;;11.98;;
33453;SDS011;39400;49.744;7.012;2022-08-19T07:52:42;14.73;;;12.93;;
33453;SDS011;39400;49.744;7.012;2022-08-19T07:55:16;14.98;;;12.50;;
33453;SDS011;39400;49.744;7.012;2022-08-19T07:58:05;17.40;;;14.50;;
33453;SDS011;39400;49.744;7.012;2022-08-19T08:00:33;15.00;;;13.40;;
33453;SDS011;39400;49.744;7.012;2022-08-19T08:03:00;16.38;;;13.55;;
33453;SDS011;39400;49.744;7.012;2022-08-19T08:05:27;15.13;;;13.13;;
33453;SDS011;39400;49.744;7.012;2022-08-19T08:08:13;13.77;;;11.85;;
33453;SDS011;39400;49.744;7.012;2022-08-19T08:10:53;17.17;;;14.27;;
33453;SDS011;39400;49.744;7.012;2022-08-19T08:15:50;18.08;;;14.82;;
33453;SDS011;39400;49.744;7.012;2022-08-19T08:18:20;14.23;;;11.18;;
33453;SDS011;39400;49.744;7.012;2022-08-19T08:20:54;13.65;;;11.70;;
33453;SDS011;39400;49.744;7.012;2022-08-19T08:23:22;12.90;;;11.47;;
33453;SDS011;39400;49.744;7.012;2022-08-19T08:25:51;14.40;;;12.17;;
33453;SDS011;39400;49.744;7.012;2022-08-19T08:28:19;12.80;;;10.18;;
33453;SDS011;39400;49.744;7.012;2022-08-19T08:30:47;17.45;;;12.07;;
33453;SDS011;39400;49.744;7.012;2022-08-19T08:33:17;18.40;;;14.93;;
33453;SDS011;39400;49.744;7.012;2022-08-19T08:36:07;18.02;;;13.27;;
33453;SDS011;39400;49.744;7.012;2022-08-19T08:38:35;11.52;;;10.20;;
33453;SDS011;39400;49.744;7.012;2022-08-19T08:41:18;11.60;;;8.95;;
33453;SDS011;39400;49.744;7.012;2022-08-19T08:44:13;12.10;;;10.75;;
33453;SDS011;39400;49.744;7.012;2022-08-19T08:46:52;13.70;;;10.73;;
33453;SDS011;39400;49.744;7.012;2022-08-19T08:49:40;12.90;;;11.65;;
33453;SDS011;39400;49.744;7.012;2022-08-19T08:52:18;11.68;;;10.48;;
33453;SDS011;39400;49.744;7.012;2022-08-19T08:54:58;15.82;;;13.98;;
33453;SDS011;39400;49.744;7.012;2022-08-19T09:00:25;17.42;;;15.73;;
33453;SDS011;39400;49.744;7.012;2022-08-19T09:02:57;17.63;;;14.93;;
33453;SDS011;39400;49.744;7.012;2022-08-19T09:05:30;17.92;;;16.02;;
33453;SDS011;39400;49.744;7.012;2022-08-19T09:08:25;19.45;;;16.17;;
33453;SDS011;39400;49.744;7.012;2022-08-19T09:11:07;15.05;;;12.43;;
33453;SDS011;39400;49.744;7.012;2022-08-19T09:13:53;17.58;;;14.48;;
33453;SDS011;39400;49.744;7.012;2022-08-19T09:16:27;17.30;;;14.52;;
33453;SDS011;39400;49.744;7.012;2022-08-19T09:18:57;18.73;;;15.70;;
33453;SDS011;39400;49.744;7.012;2022-08-19T09:21:32;21.02;;;17.83;;
33453;SDS011;39400;49.744;7.012;2022-08-19T09:24:02;15.15;;;12.63;;
33453;SDS011;39400;49.744;7.012;2022-08-19T09:26:31;19.30;;;15.63;;
33453;SDS011;39400;49.744;7.012;2022-08-19T09:29:13;17.77;;;14.23;;
33453;SDS011;39400;49.744;7.012;2022-08-19T09:31:40;19.70;;;13.80;;
33453;SDS011;39400;49.744;7.012;2022-08-19T09:34:08;16.15;;;12.35;;
33453;SDS011;39400;49.744;7.012;2022-08-19T09:39:20;13.35;;;11.98;;
33453;SDS011;39400;49.744;7.012;2022-08-19T09:41:48;14.32;;;10.23;;
33453;SDS011;39400;49.744;7.012;2022-08-19T09:44:17;16.67;;;12.57;;
33453;SDS011;39400;49.744;7.012;2022-08-19T09:46:47;15.95;;;12.50;;
33453;SDS011;39400;49.744;7.012;2022-08-19T09:49:15;13.32;;;11.32;;
33453;SDS011;39400;49.744;7.012;2022-08-19T09:51:44;12.55;;;11.25;;
33453;SDS011;39400;49.744;7.012;2022-08-19T09:54:17;12.07;;;10.80;;
33453;SDS011;39400;49.744;7.012;2022-08-19T09:56:51;10.68;;;9.55;;
33453;SDS011;39400;49.744;7.012;2022-08-19T09:59:21;13.88;;;10.93;;
33453;SDS011;39400;49.744;7.012;2022-08-19T10:01:49;15.20;;;10.50;;
33453;SDS011;39400;49.744;7.012;2022-08-19T10:04:20;12.77;;;11.20;;
33453;SDS011;39400;49.744;7.012;2022-08-19T10:07:10;14.27;;;11.63;;
33453;SDS011;39400;49.744;7.012;2022-08-19T10:09:38;12.33;;;10.47;;
33453;SDS011;39400;49.744;7.012;2022-08-19T10:12:07;11.25;;;9.52;;
33453;SDS011;39400;49.744;7.012;2022-08-19T10:14:37;11.20;;;8.82;;
33453;SDS011;39400;49.744;7.012;2022-08-19T10:17:05;10.30;;;8.55;;
33453;SDS011;39400;49.744;7.012;2022-08-19T10:19:45;16.25;;;11.60;;
33453;SDS011;39400;49.744;7.012;2022-08-19T10:22:21;12.93;;;10.75;;
33453;SDS011;39400;49.744;7.012;2022-08-19T10:24:51;10.32;;;9.20;;
33453;SDS011;39400;49.744;7.012;2022-08-19T10:27:19;11.60;;;8.70;;
33453;SDS011;39400;49.744;7.012;2022-08-19T10:29:46;10.15;;;8.80;;
33453;SDS011;39400;49.744;7.012;2022-08-19T10:32:14;10.15;;;9.15;;
33453;SDS011;39400;49.744;7.012;2022-08-19T10:34:42;11.93;;;10.45;;
33453;SDS011;39400;49.744;7.012;2022-08-19T10:37:15;9.77;;;8.07;;
33453;SDS011;39400;49.744;7.012;2022-08-19T10:39:58;12.02;;;7.70;;
33453;SDS011;39400;49.744;7.012;2022-08-19T10:42:25;9.85;;;7.97;;
33453;SDS011;39400;49.744;7.012;2022-08-19T10:44:52;9.70;;;8.43;;
33453;SDS011;39400;49.744;7.012;2022-08-19T10:47:19;13.45;;;9.73;;
33453;SDS011;39400;49.744;7.012;2022-08-19T10:49:53;11.25;;;10.05;;
33453;SDS011;39400;49.744;7.012;2022-08-19T10:52:41;8.57;;;7.67;;
33453;SDS011;39400;49.744;7.012;2022-08-19T10:55:19;11.98;;;9.70;;
33453;SDS011;39400;49.744;7.012;2022-08-19T10:58:17;9.98;;;7.53;;
33453;SDS011;39400;49.744;7.012;2022-08-19T11:00:52;10.35;;;7.78;;
33453;SDS011;39400;49.744;7.012;2022-08-19T11:03:25;10.63;;;7.70;;
33453;SDS011;39400;49.744;7.012;2022-08-19T11:05:58;11.65;;;7.55;;
33453;SDS011;39400;49.744;7.012;2022-08-19T11:08:30;9.25;;;7.03;;
33453;SDS011;39400;49.744;7.012;2022-08-19T11:10:59;10.23;;;8.35;;
33453;SDS011;39400;49.744;7.012;2022-08-19T11:13:30;11.70;;;7.93;;
33453;SDS011;39400;49.744;7.012;2022-08-19T11:16:00;10.00;;;8.50;;
33453;SDS011;39400;49.744;7.012;2022-08-19T11:18:49;12.37;;;8.10;;
33453;SDS011;39400;49.744;7.012;2022-08-19T11:21:19;10.20;;;7.30;;
33453;SDS011;39400;49.744;7.012;2022-08-19T11:23:53;11.43;;;8.05;;
33453;SDS011;39400;49.744;7.012;2022-08-19T11:26:22;10.00;;;7.55;;
33453;SDS011;39400;49.744;7.012;2022-08-19T11:28:50;7.55;;;6.25;;
33453;SDS011;39400;49.744;7.012;2022-08-19T11:31:22;8.60;;;6.32;;
33453;SDS011;39400;49.744;7.012;2022-08-19T11:33:58;8.43;;;5.50;;
33453;SDS011;39400;49.744;7.012;2022-08-19T11:36:28;8.13;;;6.60;;
33453;SDS011;39400;49.744;7.012;2022-08-19T11:38:57;11.05;;;9.00;;
33453;SDS011;39400;49.744;7.012;2022-08-19T11:41:24;14.60;;;8.77;;
33453;SDS011;39400;49.744;7.012;2022-08-19T11:43:52;13.32;;;9.35;;
33453;SDS011;39400;49.744;7.012;2022-08-19T11:46:22;9.65;;;7.53;;
33453;SDS011;39400;49.744;7.012;2022-08-19T11:48:51;8.77;;;6.00;;
33453;SDS011;39400;49.744;7.012;2022-08-19T11:51:20;9.73;;;6.97;;
33453;SDS011;39400;49.744;7.012;2022-08-19T11:53:49;6.53;;;5.45;;
33453;SDS011;39400;49.744;7.012;2022-08-19T11:56:17;7.55;;;6.50;;
33453;SDS011;39400;49.744;7.012;2022-08-19T11:58:45;11.50;;;7.35;;
33453;SDS011;39400;49.744;7.012;2022-08-19T12:01:13;8.43;;;6.97;;
33453;SDS011;39400;49.744;7.012;2022-08-19T12:03:43;7.30;;;5.28;;
33453;SDS011;39400;49.744;7.012;2022-08-19T12:06:12;10.07;;;6.30;;
33453;SDS011;39400;49.744;7.012;2022-08-19T12:08:43;9.32;;;6.80;;
33453;SDS011;39400;49.744;7.012;2022-08-19T12:11:12;7.85;;;6.63;;
33453;SDS011;39400;49.744;7.012;2022-08-19T12:16:14;10.25;;;7.35;;
33453;SDS011;39400;49.744;7.012;2022-08-19T12:18:43;7.32;;;6.00;;
33453;SDS011;39400;49.744;7.012;2022-08-19T12:21:13;7.88;;;6.43;;
33453;SDS011;39400;49.744;7.012;2022-08-19T12:23:42;8.98;;;6.53;;
33453;SDS011;39400;49.744;7.012;2022-08-19T12:26:12;9.13;;;7.63;;
33453;SDS011;39400;49.744;7.012;2022-08-19T12:28:39;10.20;;;7.55;;
33453;SDS011;39400;49.744;7.012;2022-08-19T12:31:06;7.85;;;7.05;;
33453;SDS011;39400;49.744;7.012;2022-08-19T12:33:34;9.65;;;6.97;;
33453;SDS011;39400;49.744;7.012;2022-08-19T12:36:05;8.63;;;6.55;;
33453;SDS011;39400;49.744;7.012;2022-08-19T12:38:34;7.35;;;6.65;;
33453;SDS011;39400;49.744;7.012;2022-08-19T12:41:03;9.10;;;7.38;;
33453;SDS011;39400;49.744;7.012;2022-08-19T12:43:34;9.82;;;6.45;;
33453;SDS011;39400;49.744;7.012;2022-08-19T12:46:02;8.70;;;6.53;;
33453;SDS011;39400;49.744;7.012;2022-08-19T12:48:34;8.45;;;7.10;;
33453;SDS011;39400;49.744;7.012;2022-08-19T12:51:12;9.15;;;7.70;;
33453;SDS011;39400;49.744;7.012;2022-08-19T12:53:42;10.88;;;7.32;;
33453;SDS011;39400;49.744;7.012;2022-08-19T12:56:09;8.05;;;7.25;;
33453;SDS011;39400;49.744;7.012;2022-08-19T13:01:06;10.45;;;8.02;;
33453;SDS011;39400;49.744;7.012;2022-08-19T13:03:35;9.30;;;7.68;;
33453;SDS011;39400;49.744;7.012;2022-08-19T13:06:07;6.53;;;5.82;;
33453;SDS011;39400;49.744;7.012;2022-08-19T13:08:35;10.95;;;7.15;;
33453;SDS011;39400;49.744;7.012;2022-08-19T13:11:10;8.30;;;6.70;;
33453;SDS011;39400;49.744;7.012;2022-08-19T13:13:40;11.55;;;6.45;;
33453;SDS011;39400;49.744;7.012;2022-08-19T13:16:09;8.35;;;7.13;;
33453;SDS011;39400;49.744;7.012;2022-08-19T13:18:38;8.50;;;7.47;;
33453;SDS011;39400;49.744;7.012;2022-08-19T13:21:07;7.00;;;5.65;;
33453;SDS011;39400;49.744;7.012;2022-08-19T13:23:36;8.63;;;6.55;;
33453;SDS011;39400;49.744;7.012;2022-08-19T13:26:04;10.80;;;8.55;;
33453;SDS011;39400;49.744;7.012;2022-08-19T13:28:33;11.60;;;8.60;;
33453;SDS011;39400;49.744;7.012;2022-08-19T13:31:21;7.90;;;7.03;;
33453;SDS011;39400;49.744;7.012;2022-08-19T13:34:08;9.93;;;7.63;;
33453;SDS011;39400;49.744;7.012;2022-08-19T13:36:36;10.35;;;7.65;;
33453;SDS011;39400;49.744;7.012;2022-08-19T13:39:05;13.45;;;8.25;;
33453;SDS011;39400;49.744;7.012;2022-08-19T13:41:34;8.77;;;6.90;;
33453;SDS011;39400;49.744;7.012;2022-08-19T13:44:03;10.65;;;8.35;;
33453;SDS011;39400;49.744;7.012;2022-08-19T13:46:32;9.55;;;7.80;;
33453;SDS011;39400;49.744;7.012;2022-08-19T13:48:59;9.57;;;7.88;;
33453;SDS011;39400;49.744;7.012;2022-08-19T13:51:26;13.98;;;8.68;;
33453;SDS011;39400;49.744;7.012;2022-08-19T13:53:53;11.07;;;8.95;;
33453;SDS011;39400;49.744;7.012;2022-08-19T13:56:22;14.60;;;7.82;;
33453;SDS011;39400;49.744;7.012;2022-08-19T13:58:52;10.05;;;8.55;;
33453;SDS011;39400;49.744;7.012;2022-08-19T14:01:20;11.80;;;8.98;;
33453;SDS011;39400;49.744;7.012;2022-08-19T14:03:50;11.68;;;9.10;;
33453;SDS011;39400;49.744;7.012;2022-08-19T14:06:18;10.65;;;7.70;;
33453;SDS011;39400;49.744;7.012;2022-08-19T14:08:46;16.38;;;9.10;;
33453;SDS011;39400;49.744;7.012;2022-08-19T14:11:13;12.13;;;8.43;;
33453;SDS011;39400;49.744;7.012;2022-08-19T14:13:41;10.15;;;8.30;;
33453;SDS011;39400;49.744;7.012;2022-08-19T14:16:09;11.85;;;10.40;;
33453;SDS011;39400;49.744;7.012;2022-08-19T14:18:37;9.77;;;8.18;;
33453;SDS011;39400;49.744;7.012;2022-08-19T14:21:05;9.48;;;8.18;;
33453;SDS011;39400;49.744;7.012;2022-08-19T14:23:32;10.55;;;9.15;;
33453;SDS011;39400;49.744;7.012;2022-08-19T14:26:11;8.57;;;7.00;;
33453;SDS011;39400;49.744;7.012;2022-08-19T14:28:42;9.38;;;6.47;;
33453;SDS011;39400;49.744;7.012;2022-08-19T14:31:13;10.13;;;6.55;;
33453;SDS011;39400;49.744;7.012;2022-08-19T14:33:46;11.30;;;8.25;;
33453;SDS011;39400;49.744;7.012;2022-08-19T14:36:17;9.25;;;7.82;;
33453;SDS011;39400;49.744;7.012;2022-08-19T14:41:15;11.07;;;8.80;;
33453;SDS011;39400;49.744;7.012;2022-08-19T14:43:47;9.48;;;7.32;;
33453;SDS011;39400;49.744;7.012;2022-08-19T14:46:18;9.68;;;8.43;;
33453;SDS011;39400;49.744;7.012;2022-08-19T14:48:47;6.18;;;5.57;;
33453;SDS011;39400;49.744;7.012;2022-08-19T14:51:17;8.18;;;7.20;;
33453;SDS011;39400;49.744;7.012;2022-08-19T14:56:16;13.50;;;10.70;;
33453;SDS011;39400;49.744;7.012;2022-08-19T14:58:46;8.68;;;7.50;;
33453;SDS011;39400;49.744;7.012;2022-08-19T15:01:14;8.33;;;7.33;;
33453;SDS011;39400;49.744;7.012;2022-08-19T15:03:41;7.82;;;7.03;;
33453;SDS011;39400;49.744;7.012;2022-08-19T15:06:08;6.30;;;5.70;;
33453;SDS011;39400;49.744;7.012;2022-08-19T15:08:39;8.02;;;7.22;;
33453;SDS011;39400;49.744;7.012;2022-08-19T15:11:08;8.27;;;6.85;;
33453;SDS011;39400;49.744;7.012;2022-08-19T15:13:38;7.65;;;6.85;;
33453;SDS011;39400;49.744;7.012;2022-08-19T15:16:06;9.32;;;6.28;;
33453;SDS011;39400;49.744;7.012;2022-08-19T15:18:44;7.10;;;6.30;;
33453;SDS011;39400;49.744;7.012;2022-08-19T15:21:12;9.57;;;7.28;;
33453;SDS011;39400;49.744;7.012;2022-08-19T15:23:53;6.78;;;5.80;;